VLG7PV LEBL-LECO
Flight info
| Callsign | VLG7PV |
|---|---|
| Flight time | 1h 28m |
| Altitude | 33000 |
| Route | LOBAR N725 LOMDA |
| Aircraft | A320/M-SDE3FGHIRWY/LB1 |
Departure
| Time | 2026-05-09 07:10 |
|---|---|
| Airport | Josep Tarradellas Barcelona-El Prat Airport (LEBL) |
Arrival
| Time | 2026-05-09 08:39 |
|---|---|
| Airport | A Coruña Airport (LECO) |
| Time | Latitude | Longitude | Altitude | Speed | Heading |
|---|---|---|---|---|---|
| 2026-05-09 06:54 | 41.29162 | 2.08305 | 19 ft | 0 kts | 251° |
| 2026-05-09 07:02 | 41.29164 | 2.08312 | 20 ft | 4 kts | 251° |
| 2026-05-09 07:02 | 41.29172 | 2.08345 | 23 ft | 3 kts | 256° |
| 2026-05-09 07:03 | 41.29176 | 2.08377 | 25 ft | 4 kts | 264° |
| 2026-05-09 07:03 | 41.29178 | 2.08412 | 24 ft | 4 kts | 271° |
| 2026-05-09 07:03 | 41.29180 | 2.08437 | 24 ft | 2 kts | 201° |
| 2026-05-09 07:03 | 41.29184 | 2.08439 | 23 ft | 0 kts | 201° |
| 2026-05-09 07:05 | 41.29182 | 2.08439 | 23 ft | 2 kts | 201° |
| 2026-05-09 07:05 | 41.29136 | 2.08416 | 20 ft | 10 kts | 199° |
| 2026-05-09 07:05 | 41.29067 | 2.08385 | 19 ft | 11 kts | 199° |
| 2026-05-09 07:06 | 41.28993 | 2.08351 | 18 ft | 11 kts | 199° |
| 2026-05-09 07:06 | 41.28922 | 2.08319 | 20 ft | 10 kts | 199° |
| 2026-05-09 07:06 | 41.28845 | 2.08284 | 17 ft | 14 kts | 199° |
| 2026-05-09 07:06 | 41.28754 | 2.08242 | 16 ft | 13 kts | 199° |
| 2026-05-09 07:07 | 41.28680 | 2.08190 | 17 ft | 11 kts | 234° |
| 2026-05-09 07:07 | 41.28644 | 2.08093 | 17 ft | 13 kts | 245° |
| 2026-05-09 07:07 | 41.28607 | 2.07986 | 17 ft | 12 kts | 245° |
| 2026-05-09 07:07 | 41.28569 | 2.07874 | 16 ft | 13 kts | 246° |
| 2026-05-09 07:08 | 41.28528 | 2.07754 | 16 ft | 14 kts | 245° |
| 2026-05-09 07:08 | 41.28490 | 2.07643 | 17 ft | 13 kts | 245° |
| 2026-05-09 07:08 | 41.28454 | 2.07537 | 19 ft | 12 kts | 245° |
| 2026-05-09 07:08 | 41.28405 | 2.07461 | 17 ft | 11 kts | 200° |
| 2026-05-09 07:09 | 41.28337 | 2.07428 | 16 ft | 10 kts | 200° |
| 2026-05-09 07:09 | 41.28276 | 2.07402 | 17 ft | 8 kts | 184° |
| 2026-05-09 07:09 | 41.28238 | 2.07432 | 18 ft | 6 kts | 121° |
| 2026-05-09 07:09 | 41.28249 | 2.07492 | 20 ft | 8 kts | 65° |
| 2026-05-09 07:10 | 41.28335 | 2.07740 | 19 ft | 67 kts | 65° |
| 2026-05-09 07:10 | 41.28623 | 2.08583 | 22 ft | 130 kts | 65° |
| 2026-05-09 07:10 | 41.29042 | 2.09820 | 393 ft | 148 kts | 68° |
| 2026-05-09 07:10 | 41.29292 | 2.11124 | 1224 ft | 146 kts | 90° |
| 2026-05-09 07:11 | 41.29194 | 2.12475 | 1963 ft | 150 kts | 95° |
| 2026-05-09 07:11 | 41.29059 | 2.13921 | 2378 ft | 170 kts | 96° |
| 2026-05-09 07:11 | 41.28904 | 2.15599 | 2751 ft | 195 kts | 96° |
| 2026-05-09 07:11 | 41.28734 | 2.17448 | 3513 ft | 201 kts | 97° |
| 2026-05-09 07:12 | 41.28563 | 2.19309 | 4403 ft | 203 kts | 97° |
| 2026-05-09 07:12 | 41.28392 | 2.21194 | 5254 ft | 207 kts | 97° |
| 2026-05-09 07:12 | 41.28221 | 2.23105 | 6086 ft | 211 kts | 97° |
| 2026-05-09 07:12 | 41.28050 | 2.25058 | 6890 ft | 214 kts | 97° |
| 2026-05-09 07:13 | 41.27880 | 2.27056 | 7621 ft | 221 kts | 97° |
| 2026-05-09 07:13 | 41.28075 | 2.29108 | 8284 ft | 233 kts | 65° |
| 2026-05-09 07:13 | 41.29177 | 2.30755 | 8792 ft | 253 kts | 28° |
| 2026-05-09 07:13 | 41.30932 | 2.31422 | 9199 ft | 276 kts | 6° |
| 2026-05-09 07:14 | 41.32888 | 2.31714 | 9679 ft | 296 kts | 3° |
| 2026-05-09 07:14 | 41.34983 | 2.31927 | 10282 ft | 311 kts | 2° |
| 2026-05-09 07:14 | 41.37226 | 2.32135 | 10615 ft | 334 kts | 2° |
| 2026-05-09 07:14 | 41.39590 | 2.32369 | 11252 ft | 345 kts | 3° |
| 2026-05-09 07:15 | 41.41999 | 2.32637 | 12042 ft | 350 kts | 3° |
| 2026-05-09 07:15 | 41.44442 | 2.32998 | 12839 ft | 356 kts | 6° |
| 2026-05-09 07:15 | 41.46906 | 2.33528 | 13621 ft | 361 kts | 9° |
| 2026-05-09 07:15 | 41.49390 | 2.34158 | 14352 ft | 366 kts | 10° |
| 2026-05-09 07:16 | 41.51903 | 2.34830 | 15040 ft | 371 kts | 10° |
| 2026-05-09 07:16 | 41.54450 | 2.35509 | 15730 ft | 375 kts | 9° |
| 2026-05-09 07:16 | 41.57031 | 2.36145 | 16430 ft | 379 kts | 5° |
| 2026-05-09 07:16 | 41.59653 | 2.36013 | 17089 ft | 379 kts | 345° |
| 2026-05-09 07:17 | 41.62106 | 2.34787 | 17760 ft | 377 kts | 326° |
| 2026-05-09 07:17 | 41.64151 | 2.32621 | 18395 ft | 375 kts | 308° |
| 2026-05-09 07:17 | 41.65595 | 2.29759 | 18971 ft | 371 kts | 291° |
| 2026-05-09 07:17 | 41.66328 | 2.26478 | 19563 ft | 368 kts | 274° |
| 2026-05-09 07:18 | 41.66535 | 2.23069 | 20162 ft | 369 kts | 270° |
| 2026-05-09 07:18 | 41.66711 | 2.19628 | 20763 ft | 372 kts | 270° |
| 2026-05-09 07:18 | 41.66885 | 2.16161 | 21347 ft | 375 kts | 270° |
| 2026-05-09 07:18 | 41.67060 | 2.12671 | 21915 ft | 378 kts | 270° |
| 2026-05-09 07:19 | 41.67233 | 2.09197 | 22459 ft | 381 kts | 269° |
| 2026-05-09 07:19 | 41.67411 | 2.05648 | 23041 ft | 384 kts | 269° |
| 2026-05-09 07:19 | 41.67591 | 2.02072 | 23600 ft | 387 kts | 269° |
| 2026-05-09 07:19 | 41.67771 | 1.98470 | 24080 ft | 389 kts | 269° |
| 2026-05-09 07:20 | 41.67951 | 1.94854 | 24561 ft | 391 kts | 269° |
| 2026-05-09 07:20 | 41.68131 | 1.91224 | 25050 ft | 392 kts | 269° |
| 2026-05-09 07:20 | 41.68254 | 1.88760 | 25380 ft | 393 kts | 269° |
| 2026-05-09 07:20 | 41.68435 | 1.85102 | 25840 ft | 395 kts | 268° |
| 2026-05-09 07:21 | 41.68615 | 1.81435 | 26320 ft | 396 kts | 268° |
| 2026-05-09 07:21 | 41.68794 | 1.77757 | 26790 ft | 397 kts | 268° |
| 2026-05-09 07:21 | 41.68973 | 1.74064 | 27242 ft | 399 kts | 268° |
| 2026-05-09 07:21 | 41.69149 | 1.70355 | 27697 ft | 400 kts | 268° |
| 2026-05-09 07:22 | 41.69323 | 1.66631 | 28156 ft | 402 kts | 268° |
| 2026-05-09 07:22 | 41.69496 | 1.62892 | 28615 ft | 403 kts | 268° |
| 2026-05-09 07:22 | 41.69667 | 1.59138 | 29067 ft | 405 kts | 267° |
| 2026-05-09 07:22 | 41.69840 | 1.55375 | 29494 ft | 406 kts | 267° |
| 2026-05-09 07:23 | 41.70012 | 1.51594 | 29949 ft | 408 kts | 267° |
| 2026-05-09 07:23 | 41.70182 | 1.47796 | 30306 ft | 410 kts | 266° |
| 2026-05-09 07:23 | 41.70353 | 1.43987 | 30626 ft | 411 kts | 266° |
| 2026-05-09 07:23 | 41.70522 | 1.40155 | 30961 ft | 413 kts | 266° |
| 2026-05-09 07:24 | 41.70688 | 1.36332 | 31278 ft | 414 kts | 266° |
| 2026-05-09 07:24 | 41.70853 | 1.32463 | 31607 ft | 415 kts | 266° |
| 2026-05-09 07:24 | 41.71020 | 1.28607 | 31999 ft | 415 kts | 266° |
| 2026-05-09 07:24 | 41.71192 | 1.24766 | 32468 ft | 412 kts | 265° |
| 2026-05-09 07:25 | 41.71361 | 1.20944 | 32866 ft | 411 kts | 265° |
| 2026-05-09 07:25 | 41.71528 | 1.17137 | 32976 ft | 406 kts | 265° |
| 2026-05-09 07:25 | 41.71691 | 1.13447 | 33027 ft | 392 kts | 264° |
| 2026-05-09 07:25 | 41.71847 | 1.09838 | 32987 ft | 385 kts | 264° |
| 2026-05-09 07:26 | 41.72136 | 1.02722 | 32990 ft | 382 kts | 263° |
| 2026-05-09 07:26 | 41.72415 | 0.95619 | 32992 ft | 382 kts | 263° |
| 2026-05-09 07:27 | 41.72690 | 0.88518 | 32995 ft | 382 kts | 263° |
| 2026-05-09 07:27 | 41.72969 | 0.81423 | 32998 ft | 382 kts | 263° |
| 2026-05-09 07:28 | 41.73243 | 0.74326 | 33028 ft | 382 kts | 263° |
| 2026-05-09 07:28 | 41.73514 | 0.67214 | 33012 ft | 383 kts | 263° |
| 2026-05-09 07:29 | 41.73784 | 0.60092 | 33003 ft | 383 kts | 263° |
| 2026-05-09 07:29 | 41.74050 | 0.52977 | 32992 ft | 383 kts | 263° |
| 2026-05-09 07:30 | 41.74305 | 0.45895 | 33002 ft | 383 kts | 263° |
| 2026-05-09 07:30 | 41.74557 | 0.38723 | 32999 ft | 383 kts | 263° |
| 2026-05-09 07:31 | 41.74960 | 0.31563 | 32988 ft | 394 kts | 272° |
| 2026-05-09 07:31 | 41.76552 | 0.24399 | 32978 ft | 403 kts | 278° |
| 2026-05-09 07:32 | 41.78259 | 0.17226 | 32976 ft | 405 kts | 279° |
| 2026-05-09 07:32 | 41.79950 | 0.10014 | 32972 ft | 407 kts | 279° |
| 2026-05-09 07:33 | 41.82478 | -0.00812 | 33001 ft | 409 kts | 279° |
| 2026-05-09 07:34 | 41.84184 | -0.08089 | 33013 ft | 409 kts | 279° |
| 2026-05-09 07:34 | 41.85874 | -0.15384 | 33011 ft | 410 kts | 278° |
| 2026-05-09 07:35 | 41.87559 | -0.22683 | 33009 ft | 410 kts | 278° |
| 2026-05-09 07:35 | 41.89242 | -0.29992 | 33014 ft | 410 kts | 278° |
| 2026-05-09 07:36 | 41.90929 | -0.37305 | 33018 ft | 410 kts | 278° |
| 2026-05-09 07:36 | 41.92607 | -0.44618 | 33018 ft | 410 kts | 278° |
| 2026-05-09 07:37 | 41.94283 | -0.51934 | 33015 ft | 410 kts | 278° |
| 2026-05-09 07:37 | 41.95957 | -0.59256 | 33012 ft | 410 kts | 278° |
| 2026-05-09 07:38 | 41.97623 | -0.66570 | 33008 ft | 410 kts | 278° |
| 2026-05-09 07:38 | 41.99281 | -0.73895 | 33012 ft | 410 kts | 278° |
| 2026-05-09 07:39 | 42.00935 | -0.81213 | 32992 ft | 407 kts | 278° |
| 2026-05-09 07:39 | 42.02577 | -0.88473 | 32984 ft | 406 kts | 278° |
| 2026-05-09 07:40 | 42.04202 | -0.95743 | 32985 ft | 406 kts | 278° |
| 2026-05-09 07:40 | 42.05820 | -1.03000 | 32986 ft | 406 kts | 278° |
| 2026-05-09 07:41 | 42.07435 | -1.10270 | 32986 ft | 406 kts | 277° |
| 2026-05-09 07:41 | 42.09044 | -1.17559 | 33015 ft | 407 kts | 277° |
| 2026-05-09 07:42 | 42.10650 | -1.24863 | 32990 ft | 407 kts | 277° |
| 2026-05-09 07:42 | 42.12266 | -1.32189 | 32981 ft | 408 kts | 277° |
| 2026-05-09 07:43 | 42.13872 | -1.39471 | 32976 ft | 408 kts | 277° |
| 2026-05-09 07:43 | 42.15496 | -1.46861 | 32978 ft | 408 kts | 277° |
| 2026-05-09 07:44 | 42.17096 | -1.54202 | 33010 ft | 408 kts | 276° |
| 2026-05-09 07:44 | 42.18695 | -1.61562 | 32980 ft | 410 kts | 276° |
| 2026-05-09 07:45 | 42.20294 | -1.68942 | 32972 ft | 410 kts | 276° |
| 2026-05-09 07:45 | 42.21894 | -1.76327 | 32969 ft | 410 kts | 276° |
| 2026-05-09 07:46 | 42.23470 | -1.83671 | 32970 ft | 410 kts | 276° |
| 2026-05-09 07:46 | 42.25055 | -1.91069 | 33005 ft | 410 kts | 276° |
| 2026-05-09 07:47 | 42.26647 | -1.98522 | 32985 ft | 411 kts | 275° |
| 2026-05-09 07:47 | 42.28225 | -2.05930 | 32973 ft | 411 kts | 275° |
| 2026-05-09 07:48 | 42.29798 | -2.13351 | 32972 ft | 411 kts | 275° |
| 2026-05-09 07:48 | 42.31354 | -2.20725 | 32959 ft | 411 kts | 275° |
| 2026-05-09 07:49 | 42.32919 | -2.28148 | 32957 ft | 411 kts | 275° |
| 2026-05-09 07:49 | 42.34484 | -2.35578 | 32965 ft | 411 kts | 275° |
| 2026-05-09 07:50 | 42.36036 | -2.43011 | 32965 ft | 410 kts | 275° |
| 2026-05-09 07:50 | 42.37578 | -2.50440 | 32934 ft | 411 kts | 275° |
| 2026-05-09 07:51 | 42.39134 | -2.57929 | 32947 ft | 411 kts | 275° |
| 2026-05-09 07:51 | 42.40670 | -2.65323 | 32929 ft | 411 kts | 275° |
| 2026-05-09 07:52 | 42.42203 | -2.72772 | 32946 ft | 411 kts | 274° |
| 2026-05-09 07:52 | 42.43730 | -2.80234 | 32925 ft | 411 kts | 274° |
| 2026-05-09 07:53 | 42.45235 | -2.87706 | 32917 ft | 408 kts | 271° |
| 2026-05-09 07:53 | 42.46127 | -2.95196 | 32905 ft | 402 kts | 267° |
| 2026-05-09 07:54 | 42.46945 | -3.02684 | 32911 ft | 402 kts | 267° |
| 2026-05-09 07:54 | 42.47761 | -3.10188 | 32914 ft | 403 kts | 266° |
| 2026-05-09 07:55 | 42.48572 | -3.17707 | 32898 ft | 404 kts | 266° |
| 2026-05-09 07:55 | 42.49378 | -3.25238 | 32894 ft | 404 kts | 266° |
| 2026-05-09 07:56 | 42.50181 | -3.32769 | 32898 ft | 405 kts | 266° |
| 2026-05-09 07:56 | 42.50983 | -3.40328 | 32901 ft | 405 kts | 266° |
| 2026-05-09 07:57 | 42.51779 | -3.47883 | 32935 ft | 405 kts | 266° |
| 2026-05-09 07:57 | 42.52572 | -3.55450 | 32916 ft | 405 kts | 266° |
| 2026-05-09 07:58 | 42.53359 | -3.63010 | 32912 ft | 406 kts | 266° |
| 2026-05-09 07:58 | 42.54149 | -3.70589 | 32891 ft | 406 kts | 266° |
| 2026-05-09 07:59 | 42.54930 | -3.78160 | 32884 ft | 406 kts | 266° |
| 2026-05-09 07:59 | 42.55705 | -3.85739 | 32913 ft | 405 kts | 265° |
| 2026-05-09 08:00 | 42.56475 | -3.93298 | 32913 ft | 404 kts | 265° |
| 2026-05-09 08:00 | 42.57225 | -4.00854 | 32909 ft | 404 kts | 265° |
| 2026-05-09 08:01 | 42.57976 | -4.08393 | 32902 ft | 403 kts | 265° |
| 2026-05-09 08:01 | 42.58728 | -4.15940 | 32894 ft | 403 kts | 265° |
| 2026-05-09 08:02 | 42.59463 | -4.23432 | 32896 ft | 403 kts | 265° |
| 2026-05-09 08:02 | 42.60199 | -4.31018 | 32902 ft | 403 kts | 265° |
| 2026-05-09 08:03 | 42.60931 | -4.38511 | 32897 ft | 403 kts | 265° |
| 2026-05-09 08:03 | 42.61671 | -4.46100 | 32903 ft | 403 kts | 265° |
| 2026-05-09 08:04 | 42.62391 | -4.53593 | 32899 ft | 403 kts | 265° |
| 2026-05-09 08:04 | 42.62986 | -4.59904 | 32940 ft | 403 kts | 264° |
| 2026-05-09 08:05 | 42.63813 | -4.68690 | 32913 ft | 404 kts | 264° |
| 2026-05-09 08:05 | 42.64409 | -4.75024 | 32907 ft | 404 kts | 264° |
| 2026-05-09 08:06 | 42.65113 | -4.82607 | 32904 ft | 405 kts | 264° |
| 2026-05-09 08:06 | 42.65811 | -4.90185 | 32904 ft | 404 kts | 264° |
| 2026-05-09 08:07 | 42.66504 | -4.97773 | 32932 ft | 405 kts | 264° |
| 2026-05-09 08:07 | 42.67195 | -5.05366 | 32905 ft | 406 kts | 264° |
| 2026-05-09 08:08 | 42.67885 | -5.12989 | 32893 ft | 406 kts | 263° |
| 2026-05-09 08:08 | 42.68562 | -5.20611 | 32892 ft | 407 kts | 263° |
| 2026-05-09 08:09 | 42.69233 | -5.28253 | 32896 ft | 407 kts | 263° |
| 2026-05-09 08:09 | 42.69911 | -5.35890 | 32913 ft | 407 kts | 264° |
| 2026-05-09 08:10 | 42.70573 | -5.43557 | 32895 ft | 409 kts | 264° |
| 2026-05-09 08:10 | 42.71242 | -5.51242 | 32888 ft | 410 kts | 264° |
| 2026-05-09 08:11 | 42.71916 | -5.58958 | 32888 ft | 411 kts | 264° |
| 2026-05-09 08:11 | 42.72576 | -5.66672 | 32882 ft | 411 kts | 264° |
| 2026-05-09 08:12 | 42.73566 | -5.78281 | 32882 ft | 413 kts | 266° |
| 2026-05-09 08:12 | 42.74217 | -5.86046 | 32868 ft | 414 kts | 266° |
| 2026-05-09 08:13 | 42.74869 | -5.93841 | 32866 ft | 415 kts | 266° |
| 2026-05-09 08:13 | 42.75513 | -6.01639 | 32864 ft | 415 kts | 266° |
| 2026-05-09 08:14 | 42.76154 | -6.09443 | 32897 ft | 416 kts | 266° |
| 2026-05-09 08:14 | 42.76473 | -6.13368 | 32733 ft | 419 kts | 267° |
| 2026-05-09 08:14 | 42.76788 | -6.17261 | 32469 ft | 420 kts | 267° |
| 2026-05-09 08:15 | 42.77110 | -6.21251 | 32201 ft | 419 kts | 267° |
| 2026-05-09 08:15 | 42.77423 | -6.25126 | 31926 ft | 416 kts | 267° |
| 2026-05-09 08:15 | 42.77738 | -6.29036 | 31665 ft | 414 kts | 267° |
| 2026-05-09 08:15 | 42.78051 | -6.32926 | 31409 ft | 412 kts | 267° |
| 2026-05-09 08:16 | 42.78357 | -6.36778 | 31155 ft | 409 kts | 266° |
| 2026-05-09 08:16 | 42.78656 | -6.40614 | 30891 ft | 406 kts | 266° |
| 2026-05-09 08:16 | 42.78947 | -6.44423 | 30638 ft | 403 kts | 266° |
| 2026-05-09 08:16 | 42.79237 | -6.48217 | 30421 ft | 401 kts | 267° |
| 2026-05-09 08:17 | 42.79527 | -6.51965 | 30025 ft | 396 kts | 267° |
| 2026-05-09 08:17 | 42.79816 | -6.55672 | 29491 ft | 392 kts | 267° |
| 2026-05-09 08:17 | 42.80102 | -6.59333 | 29025 ft | 386 kts | 267° |
| 2026-05-09 08:17 | 42.80381 | -6.62928 | 28586 ft | 381 kts | 267° |
| 2026-05-09 08:18 | 42.80654 | -6.66492 | 28147 ft | 376 kts | 267° |
| 2026-05-09 08:18 | 42.80922 | -6.70013 | 27714 ft | 371 kts | 267° |
| 2026-05-09 08:18 | 42.81182 | -6.73472 | 27314 ft | 366 kts | 268° |
| 2026-05-09 08:18 | 42.81437 | -6.76905 | 26883 ft | 362 kts | 268° |
| 2026-05-09 08:19 | 42.81690 | -6.80307 | 26482 ft | 359 kts | 268° |
| 2026-05-09 08:19 | 42.81942 | -6.83674 | 26076 ft | 355 kts | 268° |
| 2026-05-09 08:19 | 42.82190 | -6.87002 | 25655 ft | 353 kts | 270° |
| 2026-05-09 08:19 | 42.82437 | -6.90317 | 25237 ft | 350 kts | 270° |
| 2026-05-09 08:20 | 42.82681 | -6.93597 | 24824 ft | 347 kts | 270° |
| 2026-05-09 08:20 | 42.82923 | -6.96857 | 24398 ft | 345 kts | 270° |
| 2026-05-09 08:20 | 42.83162 | -7.00100 | 23965 ft | 342 kts | 270° |
| 2026-05-09 08:20 | 42.83398 | -7.03316 | 23532 ft | 342 kts | 271° |
| 2026-05-09 08:21 | 42.83632 | -7.06537 | 23057 ft | 341 kts | 271° |
| 2026-05-09 08:21 | 42.83865 | -7.09740 | 22611 ft | 338 kts | 271° |
| 2026-05-09 08:21 | 42.84097 | -7.12917 | 22181 ft | 336 kts | 271° |
| 2026-05-09 08:21 | 42.84327 | -7.16062 | 21742 ft | 333 kts | 270° |
| 2026-05-09 08:22 | 42.84553 | -7.19182 | 21328 ft | 329 kts | 270° |
| 2026-05-09 08:22 | 42.84771 | -7.22277 | 20931 ft | 327 kts | 270° |
| 2026-05-09 08:22 | 42.84991 | -7.25360 | 20507 ft | 327 kts | 272° |
| 2026-05-09 08:22 | 42.85464 | -7.28394 | 20107 ft | 331 kts | 283° |
| 2026-05-09 08:23 | 42.86361 | -7.31297 | 19680 ft | 335 kts | 295° |
| 2026-05-09 08:23 | 42.87657 | -7.33951 | 19263 ft | 338 kts | 304° |
| 2026-05-09 08:23 | 42.89074 | -7.36514 | 18839 ft | 339 kts | 303° |
| 2026-05-09 08:23 | 42.90482 | -7.39085 | 18423 ft | 340 kts | 303° |
| 2026-05-09 08:24 | 42.91890 | -7.41678 | 17995 ft | 340 kts | 303° |
| 2026-05-09 08:24 | 42.93300 | -7.44277 | 17542 ft | 340 kts | 303° |
| 2026-05-09 08:24 | 42.94706 | -7.46870 | 17121 ft | 339 kts | 303° |
| 2026-05-09 08:24 | 42.96103 | -7.49451 | 16713 ft | 338 kts | 303° |
| 2026-05-09 08:25 | 42.97501 | -7.52034 | 16302 ft | 338 kts | 303° |
| 2026-05-09 08:25 | 42.98899 | -7.54613 | 15890 ft | 337 kts | 303° |
| 2026-05-09 08:25 | 43.00294 | -7.57188 | 15487 ft | 337 kts | 303° |
| 2026-05-09 08:25 | 43.01686 | -7.59758 | 15084 ft | 337 kts | 303° |
| 2026-05-09 08:26 | 43.03082 | -7.62336 | 14658 ft | 338 kts | 303° |
| 2026-05-09 08:26 | 43.04477 | -7.64919 | 14255 ft | 337 kts | 303° |
| 2026-05-09 08:26 | 43.05871 | -7.67504 | 13852 ft | 338 kts | 303° |
| 2026-05-09 08:26 | 43.07264 | -7.70084 | 13422 ft | 338 kts | 303° |
| 2026-05-09 08:27 | 43.08661 | -7.72670 | 12982 ft | 337 kts | 303° |
| 2026-05-09 08:27 | 43.10051 | -7.75250 | 12560 ft | 336 kts | 303° |
| 2026-05-09 08:27 | 43.11433 | -7.77819 | 12138 ft | 334 kts | 303° |
| 2026-05-09 08:27 | 43.12805 | -7.80367 | 11711 ft | 333 kts | 303° |
| 2026-05-09 08:28 | 43.14175 | -7.82914 | 11288 ft | 331 kts | 303° |
| 2026-05-09 08:28 | 43.15538 | -7.85452 | 10858 ft | 330 kts | 303° |
| 2026-05-09 08:28 | 43.16898 | -7.87983 | 10401 ft | 329 kts | 304° |
| 2026-05-09 08:28 | 43.18247 | -7.90501 | 9982 ft | 328 kts | 304° |
| 2026-05-09 08:29 | 43.19575 | -7.92978 | 9849 ft | 316 kts | 304° |
| 2026-05-09 08:29 | 43.20855 | -7.95368 | 9717 ft | 305 kts | 304° |
| 2026-05-09 08:29 | 43.22094 | -7.97683 | 9583 ft | 296 kts | 303° |
| 2026-05-09 08:29 | 43.23292 | -7.99933 | 9293 ft | 291 kts | 303° |
| 2026-05-09 08:30 | 43.24486 | -8.02177 | 8906 ft | 291 kts | 303° |
| 2026-05-09 08:30 | 43.25677 | -8.04415 | 8550 ft | 290 kts | 303° |
| 2026-05-09 08:30 | 43.26859 | -8.06634 | 8171 ft | 288 kts | 303° |
| 2026-05-09 08:30 | 43.28037 | -8.08846 | 7780 ft | 286 kts | 303° |
| 2026-05-09 08:31 | 43.29208 | -8.11047 | 7405 ft | 284 kts | 303° |
| 2026-05-09 08:31 | 43.30388 | -8.13216 | 7003 ft | 283 kts | 309° |
| 2026-05-09 08:31 | 43.32001 | -8.14725 | 6589 ft | 284 kts | 343° |
| 2026-05-09 08:31 | 43.33949 | -8.14784 | 6205 ft | 282 kts | 15° |
| 2026-05-09 08:32 | 43.35767 | -8.13841 | 5769 ft | 280 kts | 25° |
| 2026-05-09 08:32 | 43.37584 | -8.12873 | 5316 ft | 280 kts | 18° |
| 2026-05-09 08:32 | 43.41433 | -8.12483 | 4640 ft | 274 kts | 352° |
| 2026-05-09 08:33 | 43.43246 | -8.13022 | 4472 ft | 263 kts | 343° |
| 2026-05-09 08:33 | 43.44949 | -8.13879 | 4184 ft | 259 kts | 335° |
| 2026-05-09 08:33 | 43.46540 | -8.15023 | 3828 ft | 257 kts | 327° |
| 2026-05-09 08:33 | 43.47949 | -8.16501 | 3510 ft | 255 kts | 308° |
| 2026-05-09 08:34 | 43.48745 | -8.18618 | 3292 ft | 249 kts | 277° |
| 2026-05-09 08:34 | 43.48706 | -8.20911 | 3163 ft | 230 kts | 249° |
| 2026-05-09 08:34 | 43.47995 | -8.22769 | 3063 ft | 212 kts | 223° |
| 2026-05-09 08:34 | 43.46880 | -8.23986 | 3005 ft | 201 kts | 205° |
| 2026-05-09 08:35 | 43.45689 | -8.24966 | 3008 ft | 203 kts | 206° |
| 2026-05-09 08:35 | 43.44464 | -8.25981 | 3006 ft | 203 kts | 206° |
| 2026-05-09 08:35 | 43.43281 | -8.26961 | 2993 ft | 193 kts | 206° |
| 2026-05-09 08:35 | 43.42155 | -8.27890 | 2832 ft | 190 kts | 206° |
| 2026-05-09 08:36 | 43.41010 | -8.28834 | 2600 ft | 187 kts | 206° |
| 2026-05-09 08:36 | 43.39933 | -8.29724 | 2368 ft | 174 kts | 206° |
| 2026-05-09 08:36 | 43.38938 | -8.30544 | 2145 ft | 166 kts | 206° |
| 2026-05-09 08:36 | 43.37974 | -8.31338 | 1939 ft | 154 kts | 206° |
| 2026-05-09 08:37 | 43.37093 | -8.32065 | 1723 ft | 142 kts | 207° |
| 2026-05-09 08:37 | 43.36265 | -8.32745 | 1526 ft | 139 kts | 207° |
| 2026-05-09 08:37 | 43.35436 | -8.33426 | 1355 ft | 138 kts | 209° |
| 2026-05-09 08:37 | 43.34614 | -8.34102 | 1161 ft | 137 kts | 210° |
| 2026-05-09 08:38 | 43.33796 | -8.34774 | 995 ft | 136 kts | 206° |
| 2026-05-09 08:38 | 43.32996 | -8.35438 | 767 ft | 134 kts | 207° |
| 2026-05-09 08:38 | 43.32202 | -8.36093 | 586 ft | 134 kts | 210° |
| 2026-05-09 08:38 | 43.31398 | -8.36748 | 447 ft | 135 kts | 209° |
| 2026-05-09 08:39 | 43.30594 | -8.37409 | 294 ft | 133 kts | 207° |
| 2026-05-09 08:39 | 43.29894 | -8.37979 | 274 ft | 92 kts | 211° |
| 2026-05-09 08:39 | 43.29566 | -8.38252 | 270 ft | 39 kts | 210° |
| 2026-05-09 08:39 | 43.29344 | -8.38434 | 270 ft | 30 kts | 211° |
| 2026-05-09 08:40 | 43.29270 | -8.38515 | 271 ft | 11 kts | 239° |
| 2026-05-09 08:40 | 43.29229 | -8.38581 | 271 ft | 7 kts | 170° |
| 2026-05-09 08:40 | 43.29250 | -8.38511 | 271 ft | 13 kts | 35° |
| 2026-05-09 08:40 | 43.29351 | -8.38429 | 270 ft | 19 kts | 30° |
| 2026-05-09 08:41 | 43.29474 | -8.38328 | 270 ft | 22 kts | 31° |
| 2026-05-09 08:41 | 43.29610 | -8.38215 | 270 ft | 24 kts | 31° |
| 2026-05-09 08:41 | 43.29758 | -8.38093 | 275 ft | 25 kts | 31° |
| 2026-05-09 08:41 | 43.29882 | -8.37991 | 274 ft | 11 kts | 30° |
| 2026-05-09 08:42 | 43.29943 | -8.37999 | 274 ft | 9 kts | 314° |
| 2026-05-09 08:42 | 43.29989 | -8.38064 | 273 ft | 10 kts | 333° |
| 2026-05-09 08:42 | 43.30048 | -8.38075 | 274 ft | 8 kts | 358° |
| 2026-05-09 08:42 | 43.30097 | -8.38055 | 274 ft | 7 kts | 31° |
| 2026-05-09 08:43 | 43.30136 | -8.38022 | 274 ft | 6 kts | 31° |
| 2026-05-09 08:43 | 43.30172 | -8.37993 | 274 ft | 6 kts | 31° |
| 2026-05-09 08:43 | 43.30203 | -8.37967 | 274 ft | 6 kts | 31° |
| 2026-05-09 08:43 | 43.30228 | -8.37968 | 274 ft | 3 kts | 313° |
| 2026-05-09 08:44 | 43.30238 | -8.37991 | 274 ft | 3 kts | 302° |
| 2026-05-09 08:44 | 43.30247 | -8.38010 | 274 ft | 2 kts | 302° |
| 2026-05-09 08:44 | 43.30248 | -8.38012 | 274 ft | 0 kts | 302° |